Pagrindinis puslapis
METAR-TAF:

METAR-TAF

Oro uostai :

Arekipa, Peru

platuma: 16-19S, ilguma: 071-33W, Aukštis: 2538 m

Dabartinis oras

Ataskaita buvo paskelbta 39 minutes, ne 01:00 UTC
Vėjas 6 kt iš Rytų/Šiaurės Rytų
Temperatūra 10°C
Drėgmė 43%
Slėgis 1029 hPa
Matomumas 10 km arba daugiau
nėra debesų žemiau 1500 m ir nėra kamuolinių lietaus debesų

METAR: SPQU 170100Z 06006KT CAVOK 10/M02 Q1029 RMK PP000

Laikas: 20:39 (01:39 UTC)

Prognozė

Ataskaita buvo paskelbta 2 valandos ir 39 minutes, ne 23:00 UTC
Prognozė galioja nuo 17 metu 00 UTC su 17 metu 24 UTC
Vėjas 8 kt iš Šiaurės/Šiaurės Rytų
Matomumas 10 km arba daugiau
nėra debesų žemiau 1500 m ir nėra kamuolinių lietaus debesų
Nuo 17 metu 1500 UTC
Vėjas 8 kt iš Vakarų
Matomumas 10 km arba daugiau
nėra debesų žemiau 1500 m ir nėra kamuolinių lietaus debesų
Nuo 17 metu 2100 UTC
Vėjas 6 kt iš Šiaurės Rytų
Matomumas 10 km arba daugiau
nėra debesų žemiau 1500 m ir nėra kamuolinių lietaus debesų

TAF: SPQU 162300Z 1700/1724 03008KT CAVOK TX20/1719Z TN07/1711Z FM171500 26008KT CAVOK FM172100 04006KT CAVOK

Orai ataskaitas ir orų prognozės (METAR, TAF).

turimą stotys yra geltonos ir raudonos taškus žemėlapyje.

Perkelti pele per norėdami pamatyti stoties vardą.

Tada spustelėkite, norėdami matyti oro stebėjimo ir prognozės.

Norėdami pakeisti žemėlapį: spustelėkite ant žalios mygtukų su juodo kryžiaus žemyn,; žalią mygtuką su brūkšneliu, jei norite nutolinti; arba žalių rodyklių gretimoms žemėlapius.


METAR-TAF: